sensor_id;sensor_type;location;lat;lon;timestamp;P1;durP1;ratioP1;P2;durP2;ratioP2
31728;SDS011;18309;43.658;1.312;2022-12-18T00:01:47;10.70;;;6.28;;
31728;SDS011;18309;43.658;1.312;2022-12-18T00:04:23;13.23;;;7.82;;
31728;SDS011;18309;43.658;1.312;2022-12-18T00:06:50;12.77;;;7.22;;
31728;SDS011;18309;43.658;1.312;2022-12-18T00:09:16;10.70;;;6.57;;
31728;SDS011;18309;43.658;1.312;2022-12-18T00:11:42;10.63;;;6.25;;
31728;SDS011;18309;43.658;1.312;2022-12-18T00:14:08;12.30;;;7.15;;
31728;SDS011;18309;43.658;1.312;2022-12-18T00:16:35;16.33;;;8.25;;
31728;SDS011;18309;43.658;1.312;2022-12-18T00:19:02;19.67;;;9.48;;
31728;SDS011;18309;43.658;1.312;2022-12-18T00:21:29;14.95;;;7.63;;
31728;SDS011;18309;43.658;1.312;2022-12-18T00:23:56;14.32;;;7.85;;
31728;SDS011;18309;43.658;1.312;2022-12-18T00:26:24;10.95;;;7.22;;
31728;SDS011;18309;43.658;1.312;2022-12-18T00:28:51;15.10;;;8.05;;
31728;SDS011;18309;43.658;1.312;2022-12-18T00:31:19;10.70;;;6.68;;
31728;SDS011;18309;43.658;1.312;2022-12-18T00:33:46;13.15;;;7.10;;
31728;SDS011;18309;43.658;1.312;2022-12-18T00:36:13;15.35;;;7.70;;
31728;SDS011;18309;43.658;1.312;2022-12-18T00:38:42;15.07;;;7.78;;
31728;SDS011;18309;43.658;1.312;2022-12-18T00:41:08;15.77;;;8.23;;
31728;SDS011;18309;43.658;1.312;2022-12-18T00:43:35;16.98;;;8.88;;
31728;SDS011;18309;43.658;1.312;2022-12-18T00:46:01;14.50;;;8.00;;
31728;SDS011;18309;43.658;1.312;2022-12-18T00:48:27;15.48;;;8.48;;
31728;SDS011;18309;43.658;1.312;2022-12-18T00:50:53;21.77;;;9.70;;
31728;SDS011;18309;43.658;1.312;2022-12-18T00:53:19;20.48;;;11.20;;
31728;SDS011;18309;43.658;1.312;2022-12-18T00:55:45;19.70;;;9.93;;
31728;SDS011;18309;43.658;1.312;2022-12-18T00:58:12;21.75;;;9.45;;
31728;SDS011;18309;43.658;1.312;2022-12-18T01:00:39;16.65;;;8.70;;
31728;SDS011;18309;43.658;1.312;2022-12-18T01:03:05;15.77;;;9.07;;
31728;SDS011;18309;43.658;1.312;2022-12-18T01:05:31;16.92;;;8.73;;
31728;SDS011;18309;43.658;1.312;2022-12-18T01:07:57;14.68;;;8.27;;
31728;SDS011;18309;43.658;1.312;2022-12-18T01:10:23;13.25;;;8.50;;
31728;SDS011;18309;43.658;1.312;2022-12-18T01:12:50;15.30;;;9.10;;
31728;SDS011;18309;43.658;1.312;2022-12-18T01:15:16;13.40;;;6.85;;
31728;SDS011;18309;43.658;1.312;2022-12-18T01:17:43;20.02;;;9.02;;
31728;SDS011;18309;43.658;1.312;2022-12-18T01:20:09;15.20;;;8.13;;
31728;SDS011;18309;43.658;1.312;2022-12-18T01:22:36;15.88;;;7.93;;
31728;SDS011;18309;43.658;1.312;2022-12-18T01:25:03;14.63;;;8.00;;
31728;SDS011;18309;43.658;1.312;2022-12-18T01:27:29;12.43;;;7.65;;
31728;SDS011;18309;43.658;1.312;2022-12-18T01:29:55;16.98;;;8.90;;
31728;SDS011;18309;43.658;1.312;2022-12-18T01:32:21;16.33;;;7.97;;
31728;SDS011;18309;43.658;1.312;2022-12-18T01:34:47;15.30;;;7.45;;
31728;SDS011;18309;43.658;1.312;2022-12-18T01:37:13;14.00;;;8.38;;
31728;SDS011;18309;43.658;1.312;2022-12-18T01:39:39;19.95;;;8.63;;
31728;SDS011;18309;43.658;1.312;2022-12-18T01:42:10;16.88;;;7.85;;
31728;SDS011;18309;43.658;1.312;2022-12-18T01:47:15;19.60;;;9.25;;
31728;SDS011;18309;43.658;1.312;2022-12-18T01:49:46;22.35;;;9.30;;
31728;SDS011;18309;43.658;1.312;2022-12-18T01:52:12;17.63;;;9.55;;
31728;SDS011;18309;43.658;1.312;2022-12-18T01:54:39;16.52;;;8.60;;
31728;SDS011;18309;43.658;1.312;2022-12-18T01:57:04;12.68;;;7.40;;
31728;SDS011;18309;43.658;1.312;2022-12-18T01:59:31;15.70;;;8.60;;
31728;SDS011;18309;43.658;1.312;2022-12-18T02:01:59;14.95;;;8.05;;
31728;SDS011;18309;43.658;1.312;2022-12-18T02:04:26;15.10;;;8.07;;
31728;SDS011;18309;43.658;1.312;2022-12-18T02:09:42;14.15;;;7.95;;
31728;SDS011;18309;43.658;1.312;2022-12-18T02:12:21;18.38;;;8.90;;
31728;SDS011;18309;43.658;1.312;2022-12-18T02:17:23;20.55;;;10.02;;
31728;SDS011;18309;43.658;1.312;2022-12-18T02:28:31;24.92;;;11.88;;
31728;SDS011;18309;43.658;1.312;2022-12-18T02:30:59;28.05;;;13.40;;
31728;SDS011;18309;43.658;1.312;2022-12-18T02:33:29;30.33;;;13.45;;
31728;SDS011;18309;43.658;1.312;2022-12-18T02:35:58;25.30;;;12.45;;
31728;SDS011;18309;43.658;1.312;2022-12-18T02:38:25;26.73;;;13.30;;
31728;SDS011;18309;43.658;1.312;2022-12-18T02:40:52;20.45;;;11.52;;
31728;SDS011;18309;43.658;1.312;2022-12-18T02:43:19;24.65;;;12.48;;
31728;SDS011;18309;43.658;1.312;2022-12-18T02:45:53;23.90;;;12.98;;
31728;SDS011;18309;43.658;1.312;2022-12-18T02:48:25;30.13;;;12.25;;
31728;SDS011;18309;43.658;1.312;2022-12-18T03:01:21;28.00;;;11.90;;
31728;SDS011;18309;43.658;1.312;2022-12-18T03:04:03;29.00;;;11.77;;
31728;SDS011;18309;43.658;1.312;2022-12-18T03:06:37;27.23;;;11.52;;
31728;SDS011;18309;43.658;1.312;2022-12-18T03:09:08;19.38;;;10.75;;
31728;SDS011;18309;43.658;1.312;2022-12-18T03:11:39;24.30;;;10.98;;
31728;SDS011;18309;43.658;1.312;2022-12-18T03:14:29;31.35;;;11.70;;
31728;SDS011;18309;43.658;1.312;2022-12-18T03:17:00;19.30;;;11.02;;
31728;SDS011;18309;43.658;1.312;2022-12-18T03:19:28;21.73;;;11.27;;
31728;SDS011;18309;43.658;1.312;2022-12-18T03:21:57;24.83;;;10.77;;
31728;SDS011;18309;43.658;1.312;2022-12-18T03:24:26;18.17;;;10.35;;
31728;SDS011;18309;43.658;1.312;2022-12-18T03:26:54;20.42;;;10.48;;
31728;SDS011;18309;43.658;1.312;2022-12-18T03:29:32;22.30;;;10.52;;
31728;SDS011;18309;43.658;1.312;2022-12-18T03:32:10;22.60;;;11.05;;
31728;SDS011;18309;43.658;1.312;2022-12-18T03:34:44;22.50;;;11.05;;
31728;SDS011;18309;43.658;1.312;2022-12-18T03:37:14;18.92;;;11.20;;
31728;SDS011;18309;43.658;1.312;2022-12-18T03:39:40;27.17;;;12.05;;
31728;SDS011;18309;43.658;1.312;2022-12-18T03:42:15;26.75;;;14.88;;
31728;SDS011;18309;43.658;1.312;2022-12-18T03:45:05;32.90;;;18.13;;
31728;SDS011;18309;43.658;1.312;2022-12-18T03:53:00;50.65;;;25.50;;
31728;SDS011;18309;43.658;1.312;2022-12-18T03:55:46;54.13;;;25.30;;
31728;SDS011;18309;43.658;1.312;2022-12-18T03:58:15;58.15;;;26.98;;
31728;SDS011;18309;43.658;1.312;2022-12-18T04:00:44;60.73;;;25.47;;
31728;SDS011;18309;43.658;1.312;2022-12-18T04:03:12;57.80;;;23.98;;
31728;SDS011;18309;43.658;1.312;2022-12-18T04:05:39;57.75;;;24.15;;
31728;SDS011;18309;43.658;1.312;2022-12-18T04:08:07;48.42;;;23.05;;
31728;SDS011;18309;43.658;1.312;2022-12-18T04:10:36;55.55;;;24.15;;
31728;SDS011;18309;43.658;1.312;2022-12-18T04:13:02;50.35;;;23.08;;
31728;SDS011;18309;43.658;1.312;2022-12-18T04:15:27;44.88;;;22.08;;
31728;SDS011;18309;43.658;1.312;2022-12-18T04:17:53;46.97;;;20.27;;
31728;SDS011;18309;43.658;1.312;2022-12-18T04:20:19;40.17;;;18.98;;
31728;SDS011;18309;43.658;1.312;2022-12-18T04:22:45;37.53;;;17.00;;
31728;SDS011;18309;43.658;1.312;2022-12-18T04:25:12;33.42;;;16.20;;
31728;SDS011;18309;43.658;1.312;2022-12-18T04:27:38;38.65;;;15.80;;
31728;SDS011;18309;43.658;1.312;2022-12-18T04:30:04;44.08;;;15.65;;
31728;SDS011;18309;43.658;1.312;2022-12-18T04:32:30;37.72;;;14.50;;
31728;SDS011;18309;43.658;1.312;2022-12-18T04:34:56;36.10;;;15.13;;
31728;SDS011;18309;43.658;1.312;2022-12-18T04:37:22;43.80;;;15.48;;
31728;SDS011;18309;43.658;1.312;2022-12-18T04:39:47;44.75;;;16.30;;
31728;SDS011;18309;43.658;1.312;2022-12-18T04:42:13;46.67;;;16.30;;
31728;SDS011;18309;43.658;1.312;2022-12-18T04:44:39;38.17;;;16.35;;
31728;SDS011;18309;43.658;1.312;2022-12-18T04:47:04;36.88;;;15.75;;
31728;SDS011;18309;43.658;1.312;2022-12-18T04:49:30;29.38;;;14.05;;
31728;SDS011;18309;43.658;1.312;2022-12-18T04:51:56;33.92;;;14.52;;
31728;SDS011;18309;43.658;1.312;2022-12-18T04:54:21;31.90;;;14.27;;
31728;SDS011;18309;43.658;1.312;2022-12-18T04:56:47;27.45;;;13.35;;
31728;SDS011;18309;43.658;1.312;2022-12-18T04:59:13;26.90;;;13.07;;
31728;SDS011;18309;43.658;1.312;2022-12-18T05:01:38;27.30;;;13.65;;
31728;SDS011;18309;43.658;1.312;2022-12-18T05:04:04;25.83;;;12.43;;
31728;SDS011;18309;43.658;1.312;2022-12-18T05:06:30;28.40;;;13.00;;
31728;SDS011;18309;43.658;1.312;2022-12-18T05:08:56;27.40;;;13.07;;
31728;SDS011;18309;43.658;1.312;2022-12-18T05:11:21;24.48;;;11.63;;
31728;SDS011;18309;43.658;1.312;2022-12-18T05:13:47;22.13;;;11.25;;
31728;SDS011;18309;43.658;1.312;2022-12-18T05:16:14;19.38;;;10.43;;
31728;SDS011;18309;43.658;1.312;2022-12-18T05:18:39;19.33;;;10.20;;
31728;SDS011;18309;43.658;1.312;2022-12-18T05:21:05;17.15;;;8.88;;
31728;SDS011;18309;43.658;1.312;2022-12-18T05:23:34;17.50;;;9.88;;
31728;SDS011;18309;43.658;1.312;2022-12-18T05:26:01;22.98;;;9.85;;
31728;SDS011;18309;43.658;1.312;2022-12-18T05:28:29;18.73;;;9.10;;
31728;SDS011;18309;43.658;1.312;2022-12-18T05:30:57;25.00;;;10.05;;
31728;SDS011;18309;43.658;1.312;2022-12-18T05:33:25;22.38;;;9.77;;
31728;SDS011;18309;43.658;1.312;2022-12-18T05:35:56;22.60;;;10.40;;
31728;SDS011;18309;43.658;1.312;2022-12-18T05:38:27;21.20;;;10.23;;
31728;SDS011;18309;43.658;1.312;2022-12-18T05:40:53;18.95;;;9.85;;
31728;SDS011;18309;43.658;1.312;2022-12-18T05:43:20;20.48;;;11.23;;
31728;SDS011;18309;43.658;1.312;2022-12-18T05:45:47;24.00;;;10.82;;
31728;SDS011;18309;43.658;1.312;2022-12-18T05:48:13;18.25;;;10.10;;
31728;SDS011;18309;43.658;1.312;2022-12-18T05:50:40;18.52;;;10.20;;
31728;SDS011;18309;43.658;1.312;2022-12-18T05:53:07;17.15;;;9.90;;
31728;SDS011;18309;43.658;1.312;2022-12-18T05:55:33;21.55;;;11.18;;
31728;SDS011;18309;43.658;1.312;2022-12-18T05:58:00;19.55;;;10.93;;
31728;SDS011;18309;43.658;1.312;2022-12-18T06:00:26;19.02;;;11.05;;
31728;SDS011;18309;43.658;1.312;2022-12-18T06:02:52;18.42;;;11.07;;
31728;SDS011;18309;43.658;1.312;2022-12-18T06:05:17;20.65;;;10.73;;
31728;SDS011;18309;43.658;1.312;2022-12-18T06:07:43;23.48;;;11.80;;
31728;SDS011;18309;43.658;1.312;2022-12-18T06:10:09;22.42;;;11.20;;
31728;SDS011;18309;43.658;1.312;2022-12-18T06:12:34;18.38;;;10.48;;
31728;SDS011;18309;43.658;1.312;2022-12-18T06:15:00;19.52;;;10.80;;
31728;SDS011;18309;43.658;1.312;2022-12-18T06:17:30;18.52;;;10.60;;
31728;SDS011;18309;43.658;1.312;2022-12-18T06:19:56;18.48;;;11.35;;
31728;SDS011;18309;43.658;1.312;2022-12-18T06:22:22;21.20;;;10.63;;
31728;SDS011;18309;43.658;1.312;2022-12-18T06:24:48;19.10;;;10.57;;
31728;SDS011;18309;43.658;1.312;2022-12-18T06:27:14;17.80;;;10.52;;
31728;SDS011;18309;43.658;1.312;2022-12-18T06:29:39;19.20;;;10.60;;
31728;SDS011;18309;43.658;1.312;2022-12-18T06:32:05;21.67;;;11.50;;
31728;SDS011;18309;43.658;1.312;2022-12-18T06:34:31;18.40;;;10.85;;
31728;SDS011;18309;43.658;1.312;2022-12-18T06:36:58;22.33;;;12.10;;
31728;SDS011;18309;43.658;1.312;2022-12-18T06:39:24;29.60;;;15.00;;
31728;SDS011;18309;43.658;1.312;2022-12-18T06:41:52;37.05;;;18.38;;
31728;SDS011;18309;43.658;1.312;2022-12-18T06:44:18;39.20;;;19.42;;
31728;SDS011;18309;43.658;1.312;2022-12-18T06:46:43;41.05;;;19.73;;
31728;SDS011;18309;43.658;1.312;2022-12-18T06:49:09;42.70;;;20.77;;
31728;SDS011;18309;43.658;1.312;2022-12-18T06:51:35;38.42;;;18.02;;
31728;SDS011;18309;43.658;1.312;2022-12-18T06:54:01;27.98;;;13.90;;
31728;SDS011;18309;43.658;1.312;2022-12-18T06:56:27;25.50;;;12.10;;
31728;SDS011;18309;43.658;1.312;2022-12-18T06:58:53;20.40;;;10.85;;
31728;SDS011;18309;43.658;1.312;2022-12-18T07:01:19;15.98;;;8.85;;
31728;SDS011;18309;43.658;1.312;2022-12-18T07:03:45;20.92;;;10.65;;
31728;SDS011;18309;43.658;1.312;2022-12-18T07:06:14;16.75;;;9.02;;
31728;SDS011;18309;43.658;1.312;2022-12-18T07:08:45;19.70;;;10.60;;
31728;SDS011;18309;43.658;1.312;2022-12-18T07:11:11;17.20;;;10.13;;
31728;SDS011;18309;43.658;1.312;2022-12-18T07:13:37;19.55;;;10.90;;
31728;SDS011;18309;43.658;1.312;2022-12-18T07:16:04;23.13;;;10.85;;
31728;SDS011;18309;43.658;1.312;2022-12-18T07:18:34;18.52;;;10.90;;
31728;SDS011;18309;43.658;1.312;2022-12-18T07:21:06;21.77;;;11.40;;
31728;SDS011;18309;43.658;1.312;2022-12-18T07:23:35;19.60;;;10.32;;
31728;SDS011;18309;43.658;1.312;2022-12-18T07:26:02;18.67;;;10.90;;
31728;SDS011;18309;43.658;1.312;2022-12-18T07:28:28;23.83;;;11.38;;
31728;SDS011;18309;43.658;1.312;2022-12-18T07:30:54;18.25;;;10.20;;
31728;SDS011;18309;43.658;1.312;2022-12-18T07:33:20;23.25;;;12.13;;
31728;SDS011;18309;43.658;1.312;2022-12-18T07:35:45;34.60;;;17.58;;
31728;SDS011;18309;43.658;1.312;2022-12-18T07:38:11;28.75;;;15.35;;
31728;SDS011;18309;43.658;1.312;2022-12-18T07:40:37;24.95;;;13.80;;
31728;SDS011;18309;43.658;1.312;2022-12-18T07:43:02;27.00;;;13.23;;
31728;SDS011;18309;43.658;1.312;2022-12-18T07:45:31;23.63;;;12.93;;
31728;SDS011;18309;43.658;1.312;2022-12-18T07:47:57;24.92;;;12.60;;
31728;SDS011;18309;43.658;1.312;2022-12-18T07:50:23;25.58;;;12.63;;
31728;SDS011;18309;43.658;1.312;2022-12-18T07:52:49;34.15;;;15.25;;
31728;SDS011;18309;43.658;1.312;2022-12-18T07:55:15;52.28;;;22.23;;
31728;SDS011;18309;43.658;1.312;2022-12-18T07:57:40;57.03;;;22.95;;
31728;SDS011;18309;43.658;1.312;2022-12-18T08:00:06;40.80;;;19.58;;
31728;SDS011;18309;43.658;1.312;2022-12-18T08:02:32;38.85;;;18.60;;
31728;SDS011;18309;43.658;1.312;2022-12-18T08:04:58;32.58;;;16.23;;
31728;SDS011;18309;43.658;1.312;2022-12-18T08:07:24;30.23;;;14.13;;
31728;SDS011;18309;43.658;1.312;2022-12-18T08:09:50;24.50;;;12.43;;
31728;SDS011;18309;43.658;1.312;2022-12-18T08:12:15;20.23;;;12.40;;
31728;SDS011;18309;43.658;1.312;2022-12-18T08:14:41;26.27;;;12.40;;
31728;SDS011;18309;43.658;1.312;2022-12-18T08:17:07;21.45;;;12.10;;
31728;SDS011;18309;43.658;1.312;2022-12-18T08:19:32;22.95;;;12.65;;
31728;SDS011;18309;43.658;1.312;2022-12-18T08:21:58;25.70;;;12.07;;
31728;SDS011;18309;43.658;1.312;2022-12-18T08:24:24;21.23;;;12.05;;
31728;SDS011;18309;43.658;1.312;2022-12-18T08:26:50;22.80;;;12.32;;
31728;SDS011;18309;43.658;1.312;2022-12-18T08:29:16;21.52;;;11.80;;
31728;SDS011;18309;43.658;1.312;2022-12-18T08:31:42;26.05;;;13.52;;
31728;SDS011;18309;43.658;1.312;2022-12-18T08:34:07;22.48;;;12.43;;
31728;SDS011;18309;43.658;1.312;2022-12-18T08:36:33;22.60;;;12.60;;
31728;SDS011;18309;43.658;1.312;2022-12-18T08:38:59;24.85;;;13.00;;
31728;SDS011;18309;43.658;1.312;2022-12-18T08:41:25;29.17;;;15.82;;
31728;SDS011;18309;43.658;1.312;2022-12-18T08:43:50;23.95;;;14.07;;
31728;SDS011;18309;43.658;1.312;2022-12-18T08:46:36;26.13;;;13.95;;
31728;SDS011;18309;43.658;1.312;2022-12-18T08:49:03;22.15;;;12.88;;
31728;SDS011;18309;43.658;1.312;2022-12-18T08:51:30;25.52;;;12.98;;
31728;SDS011;18309;43.658;1.312;2022-12-18T08:53:56;26.45;;;13.10;;
31728;SDS011;18309;43.658;1.312;2022-12-18T08:56:22;28.13;;;13.35;;
31728;SDS011;18309;43.658;1.312;2022-12-18T08:58:50;29.27;;;13.55;;
31728;SDS011;18309;43.658;1.312;2022-12-18T09:01:20;24.25;;;12.45;;
31728;SDS011;18309;43.658;1.312;2022-12-18T09:03:46;23.35;;;12.55;;
31728;SDS011;18309;43.658;1.312;2022-12-18T09:06:13;23.13;;;13.45;;
31728;SDS011;18309;43.658;1.312;2022-12-18T09:08:41;22.63;;;12.02;;
31728;SDS011;18309;43.658;1.312;2022-12-18T09:11:23;21.50;;;12.52;;
31728;SDS011;18309;43.658;1.312;2022-12-18T09:13:50;22.80;;;12.68;;
31728;SDS011;18309;43.658;1.312;2022-12-18T09:16:17;25.83;;;13.35;;
31728;SDS011;18309;43.658;1.312;2022-12-18T09:18:43;24.55;;;13.13;;
31728;SDS011;18309;43.658;1.312;2022-12-18T09:21:09;24.38;;;13.70;;
31728;SDS011;18309;43.658;1.312;2022-12-18T09:26:05;29.58;;;13.88;;
31728;SDS011;18309;43.658;1.312;2022-12-18T09:28:31;27.05;;;13.93;;
31728;SDS011;18309;43.658;1.312;2022-12-18T09:30:56;25.60;;;14.18;;
31728;SDS011;18309;43.658;1.312;2022-12-18T09:33:22;27.45;;;14.40;;
31728;SDS011;18309;43.658;1.312;2022-12-18T09:35:48;24.85;;;13.88;;
31728;SDS011;18309;43.658;1.312;2022-12-18T09:38:17;29.38;;;13.70;;
31728;SDS011;18309;43.658;1.312;2022-12-18T09:40:54;27.45;;;14.05;;
31728;SDS011;18309;43.658;1.312;2022-12-18T09:46:05;22.23;;;12.07;;
31728;SDS011;18309;43.658;1.312;2022-12-18T09:48:38;26.33;;;13.85;;
31728;SDS011;18309;43.658;1.312;2022-12-18T09:51:17;23.02;;;12.90;;
31728;SDS011;18309;43.658;1.312;2022-12-18T09:53:57;37.55;;;14.50;;
31728;SDS011;18309;43.658;1.312;2022-12-18T09:56:28;24.30;;;13.18;;
31728;SDS011;18309;43.658;1.312;2022-12-18T09:58:58;24.92;;;14.02;;
31728;SDS011;18309;43.658;1.312;2022-12-18T10:01:25;27.58;;;14.05;;
31728;SDS011;18309;43.658;1.312;2022-12-18T10:03:52;23.52;;;13.15;;
31728;SDS011;18309;43.658;1.312;2022-12-18T10:06:34;20.23;;;10.95;;
31728;SDS011;18309;43.658;1.312;2022-12-18T10:19:40;17.80;;;8.07;;
31728;SDS011;18309;43.658;1.312;2022-12-18T10:27:43;15.25;;;6.25;;
31728;SDS011;18309;43.658;1.312;2022-12-18T10:30:13;15.73;;;6.75;;
31728;SDS011;18309;43.658;1.312;2022-12-18T10:32:40;13.95;;;7.15;;
31728;SDS011;18309;43.658;1.312;2022-12-18T10:35:25;13.07;;;6.25;;
31728;SDS011;18309;43.658;1.312;2022-12-18T10:38:02;12.68;;;6.47;;
31728;SDS011;18309;43.658;1.312;2022-12-18T10:40:54;15.13;;;5.75;;
31728;SDS011;18309;43.658;1.312;2022-12-18T10:43:26;13.45;;;5.90;;
31728;SDS011;18309;43.658;1.312;2022-12-18T10:46:36;9.73;;;4.95;;
31728;SDS011;18309;43.658;1.312;2022-12-18T10:53:50;11.93;;;4.93;;
31728;SDS011;18309;43.658;1.312;2022-12-18T10:56:21;10.40;;;5.03;;
31728;SDS011;18309;43.658;1.312;2022-12-18T10:59:03;9.73;;;4.68;;
31728;SDS011;18309;43.658;1.312;2022-12-18T11:01:44;8.68;;;4.35;;
31728;SDS011;18309;43.658;1.312;2022-12-18T11:04:25;13.40;;;4.82;;
31728;SDS011;18309;43.658;1.312;2022-12-18T11:09:28;7.53;;;4.15;;
31728;SDS011;18309;43.658;1.312;2022-12-18T11:11:59;6.97;;;4.10;;
31728;SDS011;18309;43.658;1.312;2022-12-18T11:14:29;7.38;;;3.72;;
31728;SDS011;18309;43.658;1.312;2022-12-18T11:19:34;9.90;;;4.25;;
31728;SDS011;18309;43.658;1.312;2022-12-18T11:22:47;15.30;;;4.40;;
31728;SDS011;18309;43.658;1.312;2022-12-18T11:27:24;16.90;;;6.22;;
31728;SDS011;18309;43.658;1.312;2022-12-18T11:29:50;7.40;;;3.97;;
31728;SDS011;18309;43.658;1.312;2022-12-18T11:32:27;13.25;;;4.40;;
31728;SDS011;18309;43.658;1.312;2022-12-18T11:35:01;7.50;;;4.22;;
31728;SDS011;18309;43.658;1.312;2022-12-18T11:37:57;8.60;;;3.65;;
31728;SDS011;18309;43.658;1.312;2022-12-18T11:40:38;9.30;;;4.45;;
31728;SDS011;18309;43.658;1.312;2022-12-18T11:46:52;7.93;;;3.65;;
31728;SDS011;18309;43.658;1.312;2022-12-18T11:49:12;9.75;;;3.95;;
31728;SDS011;18309;43.658;1.312;2022-12-18T11:51:59;9.43;;;3.60;;
31728;SDS011;18309;43.658;1.312;2022-12-18T11:54:39;12.73;;;5.18;;
31728;SDS011;18309;43.658;1.312;2022-12-18T12:00:13;7.38;;;3.80;;
31728;SDS011;18309;43.658;1.312;2022-12-18T12:06:13;7.97;;;3.17;;
31728;SDS011;18309;43.658;1.312;2022-12-18T12:14:49;9.85;;;3.33;;
31728;SDS011;18309;43.658;1.312;2022-12-18T12:23:20;6.88;;;3.75;;
31728;SDS011;18309;43.658;1.312;2022-12-18T12:26:00;9.05;;;3.90;;
31728;SDS011;18309;43.658;1.312;2022-12-18T12:31:11;10.43;;;3.92;;
31728;SDS011;18309;43.658;1.312;2022-12-18T12:39:01;8.07;;;3.97;;
31728;SDS011;18309;43.658;1.312;2022-12-18T12:41:31;7.90;;;4.40;;
31728;SDS011;18309;43.658;1.312;2022-12-18T12:44:20;6.95;;;3.42;;
31728;SDS011;18309;43.658;1.312;2022-12-18T12:46:50;9.45;;;4.28;;
31728;SDS011;18309;43.658;1.312;2022-12-18T12:49:24;8.38;;;3.92;;
31728;SDS011;18309;43.658;1.312;2022-12-18T12:52:15;9.40;;;3.95;;
31728;SDS011;18309;43.658;1.312;2022-12-18T12:54:59;9.27;;;4.00;;
31728;SDS011;18309;43.658;1.312;2022-12-18T12:57:36;10.23;;;3.83;;
31728;SDS011;18309;43.658;1.312;2022-12-18T13:00:11;9.30;;;4.25;;
31728;SDS011;18309;43.658;1.312;2022-12-18T13:05:18;12.73;;;4.43;;
31728;SDS011;18309;43.658;1.312;2022-12-18T13:07:56;9.52;;;4.43;;
31728;SDS011;18309;43.658;1.312;2022-12-18T13:10:37;7.90;;;3.47;;
31728;SDS011;18309;43.658;1.312;2022-12-18T13:13:11;9.15;;;4.00;;
31728;SDS011;18309;43.658;1.312;2022-12-18T13:18:55;9.00;;;4.65;;
31728;SDS011;18309;43.658;1.312;2022-12-18T13:23:57;10.63;;;4.50;;
31728;SDS011;18309;43.658;1.312;2022-12-18T13:26:45;8.85;;;4.93;;
31728;SDS011;18309;43.658;1.312;2022-12-18T13:29:10;11.77;;;5.07;;
31728;SDS011;18309;43.658;1.312;2022-12-18T13:36:47;12.60;;;4.22;;
31728;SDS011;18309;43.658;1.312;2022-12-18T13:41:46;12.70;;;4.47;;
31728;SDS011;18309;43.658;1.312;2022-12-18T13:47:00;11.93;;;4.15;;
31728;SDS011;18309;43.658;1.312;2022-12-18T13:49:32;10.15;;;4.20;;
31728;SDS011;18309;43.658;1.312;2022-12-18T13:52:03;6.68;;;3.80;;
31728;SDS011;18309;43.658;1.312;2022-12-18T13:57:32;11.25;;;3.92;;
31728;SDS011;18309;43.658;1.312;2022-12-18T14:02:47;11.15;;;3.97;;
31728;SDS011;18309;43.658;1.312;2022-12-18T14:08:03;8.50;;;4.22;;
31728;SDS011;18309;43.658;1.312;2022-12-18T14:10:31;9.07;;;3.63;;
31728;SDS011;18309;43.658;1.312;2022-12-18T14:12:57;7.30;;;3.60;;
31728;SDS011;18309;43.658;1.312;2022-12-18T14:15:31;9.18;;;3.70;;
31728;SDS011;18309;43.658;1.312;2022-12-18T14:20:47;9.52;;;3.65;;
31728;SDS011;18309;43.658;1.312;2022-12-18T14:25:58;9.52;;;3.80;;
31728;SDS011;18309;43.658;1.312;2022-12-18T14:28:25;7.13;;;4.00;;
31728;SDS011;18309;43.658;1.312;2022-12-18T14:30:51;7.80;;;3.78;;
31728;SDS011;18309;43.658;1.312;2022-12-18T14:33:19;4.97;;;3.25;;
31728;SDS011;18309;43.658;1.312;2022-12-18T14:35:56;5.85;;;3.40;;
31728;SDS011;18309;43.658;1.312;2022-12-18T14:38:33;7.45;;;3.78;;
31728;SDS011;18309;43.658;1.312;2022-12-18T14:41:10;7.40;;;4.10;;
31728;SDS011;18309;43.658;1.312;2022-12-18T14:43:41;6.43;;;3.63;;
31728;SDS011;18309;43.658;1.312;2022-12-18T14:48:53;10.68;;;4.90;;
31728;SDS011;18309;43.658;1.312;2022-12-18T14:51:26;12.35;;;5.40;;
31728;SDS011;18309;43.658;1.312;2022-12-18T14:59:33;9.45;;;3.92;;
31728;SDS011;18309;43.658;1.312;2022-12-18T15:04:40;8.65;;;4.60;;
31728;SDS011;18309;43.658;1.312;2022-12-18T15:07:13;12.02;;;4.88;;
31728;SDS011;18309;43.658;1.312;2022-12-18T15:09:40;11.60;;;5.07;;
31728;SDS011;18309;43.658;1.312;2022-12-18T15:12:20;9.75;;;4.60;;
31728;SDS011;18309;43.658;1.312;2022-12-18T15:14:51;9.70;;;4.53;;
31728;SDS011;18309;43.658;1.312;2022-12-18T15:17:17;13.02;;;4.40;;
31728;SDS011;18309;43.658;1.312;2022-12-18T15:19:48;9.95;;;4.68;;
31728;SDS011;18309;43.658;1.312;2022-12-18T15:22:29;10.95;;;4.43;;
31728;SDS011;18309;43.658;1.312;2022-12-18T15:24:59;12.80;;;5.20;;
31728;SDS011;18309;43.658;1.312;2022-12-18T15:27:27;11.23;;;5.05;;
31728;SDS011;18309;43.658;1.312;2022-12-18T15:32:34;14.20;;;5.47;;
31728;SDS011;18309;43.658;1.312;2022-12-18T15:37:38;10.55;;;5.35;;
31728;SDS011;18309;43.658;1.312;2022-12-18T15:40:04;12.55;;;4.97;;
31728;SDS011;18309;43.658;1.312;2022-12-18T15:42:31;10.98;;;5.13;;
31728;SDS011;18309;43.658;1.312;2022-12-18T15:45:15;9.50;;;4.32;;
31728;SDS011;18309;43.658;1.312;2022-12-18T15:47:41;8.60;;;4.53;;
31728;SDS011;18309;43.658;1.312;2022-12-18T15:50:07;13.63;;;6.05;;
31728;SDS011;18309;43.658;1.312;2022-12-18T15:52:41;15.30;;;5.93;;
31728;SDS011;18309;43.658;1.312;2022-12-18T15:55:13;11.70;;;5.53;;
31728;SDS011;18309;43.658;1.312;2022-12-18T15:57:59;14.40;;;5.00;;
31728;SDS011;18309;43.658;1.312;2022-12-18T16:00:24;14.43;;;5.60;;
31728;SDS011;18309;43.658;1.312;2022-12-18T16:02:50;24.70;;;8.25;;
31728;SDS011;18309;43.658;1.312;2022-12-18T16:05:17;28.88;;;12.57;;
31728;SDS011;18309;43.658;1.312;2022-12-18T16:07:45;14.45;;;8.40;;
31728;SDS011;18309;43.658;1.312;2022-12-18T16:10:11;19.08;;;10.13;;
31728;SDS011;18309;43.658;1.312;2022-12-18T16:12:37;19.55;;;8.60;;
31728;SDS011;18309;43.658;1.312;2022-12-18T16:15:07;21.50;;;8.75;;
31728;SDS011;18309;43.658;1.312;2022-12-18T16:17:35;22.70;;;8.00;;
31728;SDS011;18309;43.658;1.312;2022-12-18T16:20:01;16.67;;;7.43;;
31728;SDS011;18309;43.658;1.312;2022-12-18T16:22:27;13.95;;;5.43;;
31728;SDS011;18309;43.658;1.312;2022-12-18T16:24:55;17.27;;;6.20;;
31728;SDS011;18309;43.658;1.312;2022-12-18T16:27:22;19.38;;;6.07;;
31728;SDS011;18309;43.658;1.312;2022-12-18T16:29:49;20.42;;;6.72;;
31728;SDS011;18309;43.658;1.312;2022-12-18T16:32:16;15.63;;;6.53;;
31728;SDS011;18309;43.658;1.312;2022-12-18T16:34:44;13.68;;;5.40;;
31728;SDS011;18309;43.658;1.312;2022-12-18T16:37:11;11.68;;;5.47;;
31728;SDS011;18309;43.658;1.312;2022-12-18T16:39:37;14.20;;;6.22;;
31728;SDS011;18309;43.658;1.312;2022-12-18T16:42:09;23.40;;;7.20;;
31728;SDS011;18309;43.658;1.312;2022-12-18T16:44:41;17.35;;;6.32;;
31728;SDS011;18309;43.658;1.312;2022-12-18T16:47:08;13.75;;;5.97;;
31728;SDS011;18309;43.658;1.312;2022-12-18T16:49:34;15.07;;;5.70;;
31728;SDS011;18309;43.658;1.312;2022-12-18T16:52:03;19.10;;;6.28;;
31728;SDS011;18309;43.658;1.312;2022-12-18T16:54:30;19.10;;;6.18;;
31728;SDS011;18309;43.658;1.312;2022-12-18T16:56:57;18.00;;;5.65;;
31728;SDS011;18309;43.658;1.312;2022-12-18T16:59:24;15.88;;;6.75;;
31728;SDS011;18309;43.658;1.312;2022-12-18T17:01:51;21.90;;;6.60;;
31728;SDS011;18309;43.658;1.312;2022-12-18T17:04:17;16.25;;;6.40;;
31728;SDS011;18309;43.658;1.312;2022-12-18T17:06:43;11.15;;;6.03;;
31728;SDS011;18309;43.658;1.312;2022-12-18T17:09:11;12.70;;;5.90;;